Time;durP1;ratioP1;P1;durP2;ratioP2;P2;SDS_P1;SDS_P2;PMS_P1;PMS_P2;Temp;Humidity;BMP_temperature;BMP_pressure;BME280_temperature;BME280_humidity;BME280_pressure;Samples;Min_cycle;Max_cycle;Signal;HPM_P1;HPM_P2
2023/09/08 00:02:11;;;;;;;7.40;3.27;;;;;;;12.70;100.00;102080.03;5053206;28;20029;-67
2023/09/08 00:04:38;;;;;;;10.07;3.70;;;;;;;12.81;100.00;102102.25;5052015;28;20028;-65
2023/09/08 00:07:04;;;;;;;7.33;3.10;;;;;;;12.74;100.00;102088.63;5053314;28;20106;-66
2023/09/08 00:09:29;;;;;;;10.40;4.13;;;;;;;12.64;100.00;102069.06;5052833;28;20068;-68
2023/09/08 00:11:55;;;;;;;6.40;3.40;;;;;;;12.73;100.00;102088.78;5052815;28;20036;-67
2023/09/08 00:14:20;;;;;;;6.63;3.53;;;;;;;12.73;100.00;102086.09;5053042;28;20116;-70
2023/09/08 00:16:46;;;;;;;6.53;2.97;;;;;;;12.87;100.00;102104.34;5053062;28;20045;-66
2023/09/08 00:19:11;;;;;;;7.77;3.00;;;;;;;12.84;100.00;102088.59;5052816;28;20033;-67
2023/09/08 00:21:37;;;;;;;7.57;3.33;;;;;;;12.91;100.00;102089.69;5052836;28;20025;-67
2023/09/08 00:24:04;;;;;;;11.77;3.63;;;;;;;12.81;100.00;102076.34;5052266;28;20337;-67
2023/09/08 00:26:30;;;;;;;6.20;3.83;;;;;;;13.00;100.00;102095.00;5052469;28;20021;-67
2023/09/08 00:28:55;;;;;;;8.70;3.00;;;;;;;13.01;100.00;102079.81;5051315;28;20035;-68
2023/09/08 00:31:21;;;;;;;5.37;2.77;;;;;;;13.03;100.00;102073.34;5052213;28;20427;-65
2023/09/08 00:33:46;;;;;;;7.13;2.90;;;;;;;13.12;100.00;102076.09;5052054;28;20510;-67
2023/09/08 00:36:12;;;;;;;6.60;3.63;;;;;;;13.16;100.00;102070.31;5050401;28;20033;-66
2023/09/08 00:38:37;;;;;;;5.33;2.83;;;;;;;13.28;100.00;102079.84;5051519;28;20025;-67
2023/09/08 00:41:05;;;;;;;9.63;3.60;;;;;;;13.30;100.00;102077.91;5051579;28;20173;-66
2023/09/08 00:43:30;;;;;;;8.87;3.30;;;;;;;13.18;100.00;102052.31;5051566;28;20440;-67
2023/09/08 00:45:58;;;;;;;8.70;3.13;;;;;;;13.41;100.00;102081.34;5051512;28;20116;-66
2023/09/08 00:48:24;;;;;;;3.45;2.70;;;;;;;13.32;100.00;102057.19;5051662;28;20028;-64
2023/09/08 00:50:50;;;;;;;8.40;3.17;;;;;;;13.38;100.00;102060.25;5051381;28;20481;-69
2023/09/08 00:53:16;;;;;;;8.47;3.30;;;;;;;13.19;100.00;102021.06;5051554;28;20123;-66
2023/09/08 00:55:41;;;;;;;6.50;3.40;;;;;;;13.51;100.00;102066.06;5051307;28;20021;-67
2023/09/08 00:58:07;;;;;;;6.17;3.40;;;;;;;13.51;100.00;102060.72;5051409;28;20093;-65
2023/09/08 01:00:32;;;;;;;10.37;4.87;;;;;;;13.45;100.00;102055.97;5051501;28;20384;-66
2023/09/08 01:02:58;;;;;;;5.67;3.33;;;;;;;13.52;100.00;102073.13;5051284;28;20352;-65
2023/09/08 01:05:24;;;;;;;7.33;3.63;;;;;;;13.48;100.00;102063.69;5051436;28;20025;-67
2023/09/08 01:07:50;;;;;;;7.53;3.33;;;;;;;13.43;100.00;102064.16;5051255;28;20025;-68
2023/09/08 01:10:16;;;;;;;9.07;3.40;;;;;;;13.21;100.00;102044.00;5051059;28;20357;-68
2023/09/08 01:12:41;;;;;;;10.53;4.10;;;;;;;13.47;100.00;102075.41;5051009;28;20044;-68
2023/09/08 01:15:07;;;;;;;7.20;3.73;;;;;;;13.36;100.00;102051.53;5051216;28;20031;-65
2023/09/08 01:17:34;;;;;;;5.33;3.10;;;;;;;13.42;100.00;102061.63;5051300;28;20388;-67
2023/09/08 01:20:07;;;;;;;9.47;3.80;;;;;;;13.49;100.00;102062.72;5051245;28;20039;-65
2023/09/08 01:22:51;;;;;;;5.10;4.60;;;;;;;13.57;100.00;102070.81;5049781;28;20060;-66
2023/09/08 01:25:25;;;;;;;10.77;3.73;;;;;;;13.58;100.00;102064.47;5033331;28;20368;-66
2023/09/08 01:27:55;;;;;;;8.10;4.00;;;;;;;13.51;100.00;102055.38;5051348;28;20357;-66
2023/09/08 01:30:24;;;;;;;7.33;3.33;;;;;;;13.69;100.00;102069.63;4980134;28;2058283;-66
2023/09/08 01:32:51;;;;;;;6.53;4.10;;;;;;;13.70;100.00;102070.47;5052349;28;20036;-67
2023/09/08 01:35:17;;;;;;;7.60;3.87;;;;;;;13.73;100.00;102071.00;5052015;28;20435;-67
2023/09/08 01:37:45;;;;;;;5.20;3.10;;;;;;;13.68;100.00;102046.53;5054779;28;20048;-65
2023/09/08 01:40:11;;;;;;;5.45;3.78;;;;;;;13.85;100.00;102052.88;5056053;28;20025;-68
2023/09/08 01:42:37;;;;;;;8.23;4.00;;;;;;;13.89;100.00;102054.28;5056428;28;20033;-69
2023/09/08 01:45:03;;;;;;;6.40;3.73;;;;;;;13.85;100.00;102039.50;5056101;28;20111;-66
2023/09/08 01:47:29;;;;;;;9.60;3.63;;;;;;;13.93;100.00;102048.47;5055820;28;20032;-67
2023/09/08 01:49:55;;;;;;;8.53;3.27;;;;;;;13.64;100.00;102002.34;5055669;28;20037;-67
2023/09/08 01:52:20;;;;;;;5.67;3.20;;;;;;;13.82;100.00;102029.94;5055829;28;20063;-67
2023/09/08 01:54:46;;;;;;;6.20;3.67;;;;;;;13.84;100.00;102035.97;5055786;28;20035;-66
2023/09/08 01:57:11;;;;;;;9.90;4.47;;;;;;;13.95;100.00;102049.16;5055708;28;20424;-68
2023/09/08 01:59:37;;;;;;;5.27;3.13;;;;;;;13.85;100.00;102026.94;5055561;28;20032;-66
2023/09/08 02:02:03;;;;;;;8.33;3.60;;;;;;;13.94;100.00;102036.75;5056285;28;20468;-65
2023/09/08 02:04:29;;;;;;;9.57;4.27;;;;;;;13.98;100.00;102037.28;5055380;28;20476;-65
2023/09/08 02:06:54;;;;;;;10.57;4.37;;;;;;;14.02;100.00;102044.00;5055106;28;20031;-67
2023/09/08 02:09:20;;;;;;;8.00;3.57;;;;;;;13.90;100.00;102024.66;5054127;28;20468;-64
2023/09/08 02:11:45;;;;;;;5.87;3.17;;;;;;;13.88;100.00;102021.31;5055358;28;20350;-64
2023/09/08 02:14:11;;;;;;;7.80;3.80;;;;;;;13.86;100.00;102012.56;5055056;28;20017;-67
2023/09/08 02:16:36;;;;;;;9.43;4.17;;;;;;;13.90;100.00;102013.97;5053777;28;20112;-66
2023/09/08 02:19:02;;;;;;;8.23;4.00;;;;;;;13.90;100.00;102030.03;5054757;28;20476;-67
2023/09/08 02:21:27;;;;;;;11.87;4.17;;;;;;;13.88;100.00;102032.03;5054678;28;20039;-68
2023/09/08 02:23:53;;;;;;;7.47;3.27;;;;;;;13.85;100.00;102026.94;5055213;28;20052;-68
2023/09/08 02:26:18;;;;;;;8.47;4.77;;;;;;;13.75;100.00;102010.13;5055111;28;20025;-66
2023/09/08 02:28:43;;;;;;;6.57;3.73;;;;;;;13.80;100.00;102023.88;5054847;28;20056;-67
2023/09/08 02:31:11;;;;;;;7.23;4.50;;;;;;;13.71;100.00;102016.78;5054755;28;20045;-67
2023/09/08 02:33:36;;;;;;;12.13;4.37;;;;;;;13.16;100.00;101933.06;5053665;28;20033;-68
2023/09/08 02:36:05;;;;;;;8.23;4.53;;;;;;;13.76;100.00;102022.50;5054563;28;20035;-67
2023/09/08 02:38:32;;;;;;;10.40;4.93;;;;;;;13.73;100.00;102014.78;5054768;28;20415;-67
2023/09/08 02:40:57;;;;;;;13.50;4.57;;;;;;;13.81;100.00;102020.22;5054807;28;20075;-66
2023/09/08 02:43:23;;;;;;;13.80;4.70;;;;;;;13.89;100.00;102028.34;5054872;28;20029;-67
2023/09/08 02:45:49;;;;;;;7.63;4.00;;;;;;;13.87;100.00;102014.25;5054523;28;20411;-67
2023/09/08 02:48:14;;;;;;;9.60;4.80;;;;;;;13.85;100.00;102004.69;5054144;28;20119;-66
2023/09/08 02:50:40;;;;;;;5.97;3.50;;;;;;;13.86;100.00;101995.66;5054670;28;20510;-65
2023/09/08 02:53:05;;;;;;;6.77;4.57;;;;;;;13.97;100.00;102011.50;5054561;28;20115;-67
2023/09/08 02:55:31;;;;;;;6.67;3.57;;;;;;;13.88;100.00;101993.69;5054523;28;20341;-66
2023/09/08 02:57:56;;;;;;;8.30;4.40;;;;;;;13.95;100.00;101998.25;5054264;28;20029;-68
2023/09/08 03:00:22;;;;;;;10.00;4.00;;;;;;;13.94;100.00;101996.59;5054376;28;20024;-66
2023/09/08 03:02:47;;;;;;;14.97;4.40;;;;;;;14.00;100.00;101991.59;5054171;28;20455;-65
2023/09/08 03:05:13;;;;;;;6.87;4.37;;;;;;;13.94;100.00;101988.56;5054128;28;20118;-67
2023/09/08 03:07:39;;;;;;;10.00;4.43;;;;;;;13.92;100.00;101977.16;5053179;28;20035;-67
2023/09/08 03:10:05;;;;;;;8.33;4.40;;;;;;;14.00;100.00;101986.25;5054348;28;20024;-68
2023/09/08 03:12:31;;;;;;;9.53;4.57;;;;;;;13.73;100.00;101937.16;5052889;28;20063;-68
2023/09/08 03:14:56;;;;;;;7.73;4.37;;;;;;;13.89;100.00;101964.06;5054146;28;20028;-68
2023/09/08 03:17:22;;;;;;;6.90;4.90;;;;;;;14.06;100.00;101980.25;5054133;28;20469;-67
2023/09/08 03:19:47;;;;;;;8.60;4.40;;;;;;;14.05;100.00;101967.88;5053784;28;20504;-69
2023/09/08 03:22:13;;;;;;;8.53;4.70;;;;;;;14.16;100.00;101978.31;5053862;28;20031;-68
2023/09/08 03:24:38;;;;;;;9.30;5.00;;;;;;;14.19;100.00;101988.75;5054061;28;20033;-69
2023/09/08 03:27:04;;;;;;;9.40;4.97;;;;;;;14.15;100.00;101968.59;5053957;28;20427;-66
2023/09/08 03:29:29;;;;;;;7.97;4.80;;;;;;;14.23;100.00;101976.72;5053829;28;20048;-67
2023/09/08 03:31:55;;;;;;;8.03;4.83;;;;;;;14.23;100.00;101979.38;5053567;28;20053;-68
2023/09/08 03:34:20;;;;;;;10.73;4.37;;;;;;;14.21;100.00;101968.84;5053584;28;20123;-68
2023/09/08 03:36:46;;;;;;;14.03;5.30;;;;;;;14.27;100.00;101973.56;5053644;28;20025;-68
2023/09/08 03:39:12;;;;;;;5.50;4.50;;;;;;;14.24;100.00;101963.16;5053790;28;20082;-67
2023/09/08 03:41:38;;;;;;;7.93;4.83;;;;;;;14.09;100.00;101947.78;5053648;28;20037;-69
2023/09/08 03:44:03;;;;;;;9.50;5.40;;;;;;;14.00;100.00;101927.31;5052465;28;20083;-67
2023/09/08 03:46:29;;;;;;;10.17;5.77;;;;;;;14.23;100.00;101966.00;5053470;28;20037;-68
2023/09/08 03:48:58;;;;;;;9.07;4.33;;;;;;;14.18;100.00;101958.44;5053327;28;20039;-67
2023/09/08 03:51:24;;;;;;;11.23;5.10;;;;;;;14.17;100.00;101945.19;5053460;28;20028;-68
2023/09/08 03:53:51;;;;;;;7.40;5.13;;;;;;;14.37;100.00;101977.97;5053230;28;20031;-67
2023/09/08 03:56:16;;;;;;;12.20;5.17;;;;;;;14.35;100.00;101970.09;5053195;28;20040;-68
2023/09/08 03:58:41;;;;;;;10.63;5.57;;;;;;;14.36;100.00;101963.72;5052850;28;20078;-66
2023/09/08 04:01:07;;;;;;;8.13;4.63;;;;;;;14.35;100.00;101959.38;5052322;28;20112;-67
2023/09/08 04:03:32;;;;;;;9.00;5.27;;;;;;;14.47;100.00;101978.75;5053006;28;20056;-66
2023/09/08 04:05:58;;;;;;;8.50;5.20;;;;;;;14.39;100.00;101955.38;5053723;28;20112;-66
2023/09/08 04:08:24;;;;;;;7.03;5.10;;;;;;;14.50;100.00;101990.00;5052199;28;20025;-67
2023/09/08 04:10:49;;;;;;;9.30;4.70;;;;;;;14.52;100.00;101988.00;5052842;28;20040;-67
2023/09/08 04:13:15;;;;;;;9.50;4.80;;;;;;;14.47;100.00;101968.03;5053276;28;20182;-69
2023/09/08 04:15:40;;;;;;;7.10;5.00;;;;;;;14.48;100.00;101970.53;5052815;28;20025;-68
2023/09/08 04:18:06;;;;;;;5.63;4.30;;;;;;;14.37;100.00;101943.13;5052679;28;20082;-68
2023/09/08 04:20:31;;;;;;;5.10;3.70;;;;;;;14.63;100.00;101983.34;5052737;28;20088;-68
2023/09/08 04:22:57;;;;;;;7.73;4.07;;;;;;;14.48;100.00;101954.47;5052641;28;20480;-67
2023/09/08 04:25:22;;;;;;;6.70;4.63;;;;;;;14.62;100.00;101978.97;5052685;28;20108;-68
2023/09/08 04:27:48;;;;;;;10.00;4.20;;;;;;;14.67;100.00;101984.72;5051290;28;20075;-71
2023/09/08 04:30:14;;;;;;;10.67;4.30;;;;;;;14.68;100.00;101975.66;5051408;28;20052;-70
2023/09/08 04:32:40;;;;;;;6.73;4.13;;;;;;;14.63;100.00;101957.38;5052484;28;20523;-68
2023/09/08 04:35:06;;;;;;;6.67;4.73;;;;;;;14.75;100.00;101982.09;5052315;28;20119;-68
2023/09/08 04:37:31;;;;;;;11.87;4.33;;;;;;;14.68;100.00;101960.41;5052561;28;20039;-68
2023/09/08 04:39:57;;;;;;;7.93;4.10;;;;;;;14.73;100.00;101965.28;5052280;28;20037;-70
2023/09/08 04:42:23;;;;;;;5.80;4.30;;;;;;;14.76;100.00;101962.31;5052639;28;20029;-69
2023/09/08 04:44:49;;;;;;;7.53;3.83;;;;;;;14.52;100.00;101912.09;5052376;28;20475;-68
2023/09/08 04:47:14;;;;;;;8.47;4.03;;;;;;;14.84;100.00;101965.03;5052050;28;20029;-69
2023/09/08 04:49:40;;;;;;;6.30;3.90;;;;;;;14.77;100.00;101942.53;5051866;28;20115;-68
2023/09/08 04:52:05;;;;;;;10.87;5.10;;;;;;;14.68;100.00;101928.22;5052224;28;20029;-68
2023/09/08 04:54:31;;;;;;;6.43;3.87;;;;;;;14.90;100.00;101966.22;5052297;28;20116;-69
2023/09/08 04:56:57;;;;;;;7.90;4.30;;;;;;;14.90;100.00;101964.38;5052595;28;20395;-69
2023/09/08 04:59:23;;;;;;;5.60;3.53;;;;;;;14.93;100.00;101958.69;5052150;28;20035;-66
2023/09/08 05:01:49;;;;;;;6.47;4.30;;;;;;;14.95;100.00;101966.56;5052061;28;20017;-68
2023/09/08 05:04:17;;;;;;;8.20;3.60;;;;;;;14.97;100.00;101970.75;5051602;28;20069;-65
2023/09/08 05:06:42;;;;;;;8.43;3.47;;;;;;;15.02;100.00;101963.06;5052028;28;20039;-68
2023/09/08 05:09:08;;;;;;;6.80;3.70;;;;;;;15.00;100.00;101959.69;5052096;28;20025;-69
2023/09/08 05:11:33;;;;;;;6.30;3.83;;;;;;;15.06;100.00;101964.44;5051984;28;20025;-70
2023/09/08 05:13:59;;;;;;;5.13;3.13;;;;;;;14.96;100.00;101934.22;5050565;28;20021;-69
2023/09/08 05:16:39;;;;;;;3.90;3.30;;;;;;;15.13;100.00;101946.69;5051882;28;20043;-70
2023/09/08 05:19:05;;;;;;;4.40;2.80;;;;;;;15.36;100.00;101954.13;5051639;28;20103;-69
2023/09/08 05:21:32;;;;;;;6.83;3.27;;;;;;;15.50;100.00;101956.16;5051752;28;20033;-71
2023/09/08 05:23:58;;;;;;;6.37;3.00;;;;;;;15.67;100.00;101957.06;5051966;28;20040;-69
2023/09/08 05:26:23;;;;;;;5.37;3.27;;;;;;;15.53;100.00;101906.66;5052027;28;20046;-69
2023/09/08 05:28:49;;;;;;;4.03;3.47;;;;;;;15.82;100.00;101946.47;5050711;28;20025;-69
2023/09/08 05:31:17;;;;;;;6.93;2.93;;;;;;;15.79;100.00;101955.69;5050557;28;20045;-68
2023/09/08 05:33:43;;;;;;;9.67;2.87;;;;;;;15.80;100.00;101952.84;5051761;28;20508;-68
2023/09/08 05:36:08;;;;;;;4.57;2.90;;;;;;;15.76;100.00;101940.75;5051991;28;20044;-70
2023/09/08 05:38:34;;;;;;;5.37;3.30;;;;;;;15.77;100.00;101934.38;5051753;28;20071;-69
2023/09/08 05:40:59;;;;;;;5.37;2.67;;;;;;;15.86;100.00;101950.47;5051338;28;20188;-67
2023/09/08 05:43:25;;;;;;;4.33;2.77;;;;;;;15.88;100.00;101943.09;5052127;28;20032;-67
2023/09/08 05:45:50;;;;;;;13.40;3.50;;;;;;;15.88;100.00;101948.47;5051459;28;20043;-68
2023/09/08 05:48:16;;;;;;;8.27;3.90;;;;;;;16.06;100.00;101957.19;5051737;28;20025;-68
2023/09/08 05:50:42;;;;;;;12.73;4.60;;;;;;;16.03;100.00;101946.78;5050229;28;20029;-68
2023/09/08 05:53:07;;;;;;;6.43;3.40;;;;;;;16.11;100.00;101944.09;5051861;28;20028;-69
2023/09/08 05:55:33;;;;;;;11.30;3.57;;;;;;;16.25;100.00;101945.25;5051464;28;20041;-66
2023/09/08 05:57:58;;;;;;;6.67;3.80;;;;;;;16.34;100.00;101942.38;5051396;28;20029;-67
2023/09/08 06:00:24;;;;;;;6.97;3.93;;;;;;;16.35;100.00;101925.22;5050994;28;20029;-67
2023/09/08 06:02:49;;;;;;;6.63;3.27;;;;;;;16.36;100.00;101915.31;5051173;28;20025;-68
2023/09/08 06:05:15;;;;;;;5.40;3.43;;;;;;;16.27;100.00;101887.63;5051603;28;20033;-65
2023/09/08 06:07:40;;;;;;;7.13;3.20;;;;;;;16.64;100.00;101924.63;5051571;28;20106;-69
2023/09/08 06:10:06;;;;;;;6.27;2.90;;;;;;;16.63;100.00;101938.25;5051598;28;20594;-66
2023/09/08 06:12:31;;;;;;;11.80;3.30;;;;;;;16.59;100.00;101924.31;5051397;28;20039;-69
2023/09/08 06:14:57;;;;;;;5.83;3.00;;;;;;;16.55;100.00;101932.91;5050549;28;20060;-67
2023/09/08 06:17:22;;;;;;;5.83;3.80;;;;;;;16.41;100.00;101919.16;5051370;28;20033;-68
2023/09/08 06:19:48;;;;;;;5.10;3.57;;;;;;;16.40;100.00;101928.22;5051460;28;20071;-65
2023/09/08 06:22:13;;;;;;;9.13;3.50;;;;;;;16.38;100.00;101914.13;5051441;28;20106;-65
2023/09/08 06:24:39;;;;;;;5.70;2.97;;;;;;;16.58;100.00;101929.88;5055089;28;20084;-67
2023/09/08 06:27:05;;;;;;;9.37;2.93;;;;;;;16.79;100.00;101932.84;5054615;28;20020;-69
2023/09/08 06:29:31;;;;;;;15.57;3.27;;;;;;;17.04;100.00;101934.38;5054941;28;20040;-68
2023/09/08 06:31:56;;;;;;;6.33;3.00;;;;;;;17.09;100.00;101925.81;5054498;28;20091;-67
2023/09/08 06:34:22;;;;;;;6.83;3.27;;;;;;;17.14;100.00;101930.66;5053431;28;20037;-69
2023/09/08 06:36:48;;;;;;;6.03;3.37;;;;;;;17.07;100.00;101935.06;5054856;28;20056;-68
2023/09/08 06:39:14;;;;;;;5.10;3.63;;;;;;;16.91;100.00;101936.81;5054565;28;20461;-68
2023/09/08 06:41:39;;;;;;;4.27;3.03;;;;;;;16.86;100.00;101939.22;5054523;28;20465;-68
2023/09/08 06:44:05;;;;;;;9.00;4.20;;;;;;;16.67;100.00;101934.22;5054801;28;20068;-68
2023/09/08 06:46:31;;;;;;;5.47;2.63;;;;;;;16.61;100.00;101937.59;5054704;28;20484;-65
2023/09/08 06:48:56;;;;;;;5.33;3.37;;;;;;;16.64;100.00;101948.00;5053114;28;20040;-68
2023/09/08 06:51:22;;;;;;;6.13;3.73;;;;;;;16.54;100.00;101933.94;5054403;28;20112;-66
2023/09/08 06:53:57;;;;;;;5.57;2.87;;;;;;;16.63;100.00;101944.47;5054331;28;20108;-66
2023/09/08 06:56:23;;;;;;;6.67;2.73;;;;;;;16.59;100.00;101937.75;5054344;28;20174;-65
2023/09/08 06:58:49;;;;;;;6.20;3.33;;;;;;;16.68;100.00;101936.75;5054230;28;20052;-67
2023/09/08 07:01:15;;;;;;;8.97;3.27;;;;;;;16.79;100.00;101930.16;5054122;28;20028;-67
2023/09/08 07:03:40;;;;;;;4.43;2.80;;;;;;;16.92;100.00;101925.03;5053130;28;20025;-69
2023/09/08 07:06:06;;;;;;;6.47;3.63;;;;;;;17.02;100.00;101917.56;5054242;28;20036;-68
2023/09/08 07:08:31;;;;;;;8.45;2.97;;;;;;;17.18;100.00;101921.22;5054326;28;20533;-67
2023/09/08 07:10:57;;;;;;;6.17;3.50;;;;;;;17.30;100.00;101920.59;5052927;28;20029;-68
2023/09/08 07:13:22;;;;;;;6.70;3.97;;;;;;;17.34;100.00;101926.47;5052613;28;20020;-67
2023/09/08 07:15:48;;;;;;;6.30;3.30;;;;;;;17.36;100.00;101926.31;5053951;28;20320;-67
2023/09/08 07:18:13;;;;;;;4.65;2.42;;;;;;;17.43;100.00;101924.56;5054202;28;20036;-68
2023/09/08 07:20:39;;;;;;;7.78;2.55;;;;;;;17.54;100.00;101911.53;5052633;28;20124;-65
2023/09/08 07:23:06;;;;;;;5.18;3.50;;;;;;;17.64;100.00;101901.34;5053837;28;20048;-66
2023/09/08 07:25:31;;;;;;;6.38;3.88;;;;;;;17.81;100.00;101906.63;5053623;28;20060;-69
2023/09/08 07:27:57;;;;;;;5.40;2.25;;;;;;;17.92;99.30;101919.63;5052552;28;20045;-67
2023/09/08 07:30:24;;;;;;;5.32;3.00;;;;;;;17.83;99.32;101883.84;5053788;28;20075;-66
2023/09/08 07:32:50;;;;;;;5.85;2.83;;;;;;;17.94;98.21;101882.59;5056195;28;20480;-67
2023/09/08 07:35:16;;;;;;;5.80;2.55;;;;;;;18.24;97.14;101915.81;5053692;28;20059;-66
2023/09/08 07:37:42;;;;;;;6.60;2.95;;;;;;;18.26;95.48;101909.19;5057803;28;20028;-65
2023/09/08 07:40:11;;;;;;;5.75;2.50;;;;;;;18.29;94.11;101928.72;5056408;28;20033;-68
2023/09/08 07:42:37;;;;;;;7.80;2.92;;;;;;;18.22;93.80;101910.59;5056882;28;20166;-68
2023/09/08 07:45:02;;;;;;;6.22;3.08;;;;;;;18.38;94.06;101908.72;5057207;28;20051;-68
2023/09/08 07:47:31;;;;;;;4.95;2.47;;;;;;;18.60;93.52;101918.59;5057042;28;20028;-66
2023/09/08 07:50:17;;;;;;;6.50;3.20;;;;;;;18.58;92.78;101905.28;5056041;28;20468;-69
2023/09/08 07:52:42;;;;;;;6.25;3.50;;;;;;;18.71;92.55;101928.09;5055757;28;20052;-65
2023/09/08 07:55:08;;;;;;;4.20;2.63;;;;;;;18.67;92.11;101922.25;5056870;28;20033;-66
2023/09/08 07:57:33;;;;;;;4.70;3.30;;;;;;;18.74;91.63;101915.06;5055054;28;20021;-69
2023/09/08 07:59:59;;;;;;;5.15;3.10;;;;;;;18.74;91.22;101925.00;5053110;28;20039;-66
2023/09/08 08:02:24;;;;;;;7.93;2.90;;;;;;;18.63;91.55;101918.25;5053083;28;20029;-68
2023/09/08 08:04:50;;;;;;;5.38;3.15;;;;;;;18.80;91.98;101930.53;5053338;28;20353;-73
2023/09/08 08:07:15;;;;;;;10.75;3.67;;;;;;;18.80;91.88;101925.13;5052980;28;20148;-70
2023/09/08 08:09:41;;;;;;;7.13;3.03;;;;;;;18.86;92.36;101924.38;5053632;28;20021;-70
2023/09/08 08:12:06;;;;;;;11.65;3.60;;;;;;;18.84;91.84;101915.63;5051940;28;20047;-73
2023/09/08 08:14:31;;;;;;;10.75;3.47;;;;;;;18.88;92.08;101922.31;5053163;28;20066;-70
2023/09/08 08:16:57;;;;;;;7.43;3.38;;;;;;;18.95;92.22;101932.34;5052828;28;20025;-68
2023/09/08 08:19:23;;;;;;;9.32;3.22;;;;;;;18.96;92.46;101931.31;5052471;28;20036;-67
2023/09/08 08:21:48;;;;;;;5.28;2.88;;;;;;;18.92;91.49;101935.44;5052551;28;20032;-68
2023/09/08 08:24:13;;;;;;;8.25;3.85;;;;;;;18.78;90.49;101910.94;5052745;28;20381;-68
2023/09/08 08:26:39;;;;;;;4.13;2.83;;;;;;;18.75;90.48;101905.94;5052626;28;20413;-67
2023/09/08 08:29:04;;;;;;;8.13;2.90;;;;;;;18.80;90.77;101917.03;5053524;28;20029;-69
2023/09/08 08:31:30;;;;;;;6.38;2.75;;;;;;;18.78;91.58;101923.59;5052954;28;20045;-69
2023/09/08 08:33:55;;;;;;;4.55;3.35;;;;;;;18.52;91.50;101878.22;5055392;28;20060;-69
2023/09/08 08:36:21;;;;;;;5.50;3.40;;;;;;;18.64;91.14;101892.09;5056047;28;20465;-68
2023/09/08 08:38:46;;;;;;;10.65;2.83;;;;;;;18.58;90.71;101872.91;5053655;28;20028;-70
2023/09/08 08:41:12;;;;;;;7.40;2.85;;;;;;;18.68;90.94;101914.97;5053101;28;20411;-67
2023/09/08 08:43:37;;;;;;;7.68;3.00;;;;;;;18.64;90.79;101906.44;5053509;28;20028;-68
2023/09/08 08:46:04;;;;;;;4.82;2.70;;;;;;;18.64;90.55;101910.97;5052476;28;20021;-69
2023/09/08 08:48:32;;;;;;;6.03;3.13;;;;;;;18.52;89.38;101900.66;5052171;28;20141;-68
2023/09/08 08:50:58;;;;;;;5.43;2.88;;;;;;;18.52;86.87;101903.34;5052007;28;20025;-68
2023/09/08 08:53:25;;;;;;;7.75;3.50;;;;;;;18.52;88.15;101895.25;5052340;28;20044;-70
2023/09/08 08:55:55;;;;;;;6.57;3.25;;;;;;;18.49;89.67;101886.66;5051009;28;20035;-69
2023/09/08 08:58:24;;;;;;;5.20;2.42;;;;;;;18.35;89.64;101861.41;5052240;28;20029;-69
2023/09/08 09:00:53;;;;;;;7.93;3.88;;;;;;;18.63;89.47;101902.06;5051942;28;20166;-68
2023/09/08 09:03:20;;;;;;;;;;;;;;;18.80;90.02;101903.53;5052304;28;20031;-68
2023/09/08 09:05:46;;;;;;;5.13;3.03;;;;;;;18.77;89.67;101882.28;5051997;28;19912;-73
2023/09/08 09:08:13;;;;;;;6.72;2.50;;;;;;;18.85;89.14;101878.66;5051963;28;20029;-73
2023/09/08 09:10:38;;;;;;;4.90;2.88;;;;;;;19.00;88.42;101892.94;5051999;28;20056;-69
2023/09/08 09:13:04;;;;;;;5.38;2.80;;;;;;;19.08;87.16;101881.19;5052367;28;20067;-69
2023/09/08 09:15:32;;;;;;;4.43;2.47;;;;;;;18.99;79.89;101882.34;5051919;28;20121;-67
2023/09/08 09:18:07;;;;;;;6.03;1.92;;;;;;;19.16;78.24;101892.72;5051813;28;20468;-69
2023/09/08 09:20:33;;;;;;;4.53;2.88;;;;;;;19.21;79.08;101883.19;5052309;28;20036;-67
2023/09/08 09:22:59;;;;;;;4.00;1.95;;;;;;;19.19;77.56;101883.41;5052298;28;20426;-68
2023/09/08 09:25:30;;;;;;;5.60;2.00;;;;;;;19.31;78.02;101895.34;5052129;28;20036;-68
2023/09/08 09:27:58;;;;;;;5.32;2.47;;;;;;;19.30;78.13;101888.28;5051601;28;20021;-69
2023/09/08 09:30:26;;;;;;;5.55;2.75;;;;;;;19.35;78.30;101885.81;5051260;28;20047;-69
2023/09/08 09:33:02;;;;;;;;;;;;;;;19.59;79.50;101894.59;5051872;28;20133;-71
2023/09/08 09:35:51;;;;;;;4.78;1.95;;;;;;;19.59;77.16;101900.84;5051836;28;19917;-69
2023/09/08 09:38:18;;;;;;;5.28;2.08;;;;;;;19.49;77.62;101882.25;5052138;28;20411;-72
2023/09/08 09:40:45;;;;;;;6.20;2.20;;;;;;;19.67;74.25;101899.91;5051522;28;20123;-74
2023/09/08 09:43:11;;;;;;;4.30;2.05;;;;;;;19.61;73.96;101906.06;5049505;28;20036;-71
2023/09/08 09:45:39;;;;;;;3.17;1.80;;;;;;;19.54;73.86;101887.09;5051416;28;20037;-70
2023/09/08 09:48:06;;;;;;;4.05;1.88;;;;;;;19.48;73.86;101885.97;5051580;28;20465;-71
2023/09/08 09:50:33;;;;;;;3.35;2.15;;;;;;;19.59;74.19;101902.72;5051254;28;20337;-69
2023/09/08 09:53:02;;;;;;;2.35;1.65;;;;;;;19.61;74.43;101884.44;5051623;28;20025;-70
2023/09/08 09:55:28;;;;;;;6.70;2.17;;;;;;;19.76;76.50;101907.66;5051150;28;20037;-71
2023/09/08 09:58:03;;;;;;;4.80;2.10;;;;;;;19.62;79.88;101873.44;5051268;28;20070;-68
2023/09/08 10:00:30;;;;;;;2.80;2.25;;;;;;;19.80;81.32;101890.00;5055321;28;20029;-70
2023/09/08 10:02:56;;;;;;;5.22;3.08;;;;;;;19.70;75.62;101877.88;5055308;28;20116;-68
2023/09/08 10:05:23;;;;;;;5.22;2.15;;;;;;;19.71;72.63;101876.84;5055476;28;20029;-68
2023/09/08 10:07:49;;;;;;;6.25;2.05;;;;;;;19.89;70.65;101909.63;5049100;28;20061;-66
2023/09/08 10:10:16;;;;;;;5.93;2.85;;;;;;;19.89;74.16;101885.28;5041157;28;20116;-65
2023/09/08 10:12:49;;;;;;;5.13;2.72;;;;;;;20.08;79.34;101897.28;5035188;28;20025;-66
2023/09/08 10:15:19;;;;;;;5.65;2.88;;;;;;;20.15;80.64;101887.34;5035251;28;20037;-70
2023/09/08 10:17:47;;;;;;;3.08;1.75;;;;;;;20.24;80.81;101894.28;5048952;28;20040;-66
2023/09/08 10:20:13;;;;;;;3.13;1.83;;;;;;;20.24;80.36;101906.94;5054878;28;20430;-69
2023/09/08 10:22:42;;;;;;;3.53;1.95;;;;;;;20.12;82.08;101912.09;5052635;28;20038;-67
2023/09/08 10:25:10;;;;;;;3.35;1.95;;;;;;;19.86;82.91;101893.78;5054532;28;20514;-67
2023/09/08 10:27:36;;;;;;;4.75;1.80;;;;;;;19.73;83.76;101889.13;5054925;28;20195;-67
2023/09/08 10:30:06;;;;;;;2.83;1.88;;;;;;;19.78;83.91;101893.94;5056643;28;20095;-67
2023/09/08 10:32:36;;;;;;;7.90;2.75;;;;;;;19.80;82.38;101890.00;5054892;28;20040;-66
2023/09/08 10:35:06;;;;;;;8.02;2.35;;;;;;;20.00;82.91;101905.56;5053331;28;20025;-67
2023/09/08 10:37:32;;;;;;;3.50;2.15;;;;;;;19.95;83.09;101908.00;5055195;28;20384;-70
2023/09/08 10:40:19;;;;;;;5.50;2.20;;;;;;;20.05;80.91;101913.91;5053342;28;20039;-70
2023/09/08 10:42:45;;;;;;;5.60;2.50;;;;;;;19.86;82.80;101891.09;5053454;28;20369;-69
2023/09/08 10:45:15;;;;;;;6.25;2.67;;;;;;;19.79;82.78;101907.25;5056038;28;20074;-68
2023/09/08 10:47:56;;;;;;;4.40;3.33;;;;;;;19.62;82.73;101896.91;5054678;28;20025;-72
2023/09/08 10:50:32;;;;;;;6.32;2.00;;;;;;;19.65;80.88;101907.34;5054871;28;20017;-70
2023/09/08 10:53:15;;;;;;;4.03;2.47;;;;;;;19.52;81.94;101901.78;5054551;28;20051;-72
2023/09/08 10:55:48;;;;;;;6.28;2.90;;;;;;;19.43;82.33;101888.44;5053199;28;20025;-69
2023/09/08 10:58:18;;;;;;;3.80;2.55;;;;;;;19.58;82.17;101911.84;5054481;28;20033;-71
2023/09/08 11:00:46;;;;;;;6.70;2.75;;;;;;;19.53;80.43;101898.06;5054469;28;20091;-71
2023/09/08 11:03:13;;;;;;;3.53;2.30;;;;;;;19.58;74.65;101906.44;5055416;28;20024;-74
2023/09/08 11:05:38;;;;;;;4.75;2.17;;;;;;;19.62;74.10;101913.13;5054086;28;20093;-71
2023/09/08 11:08:04;;;;;;;2.85;2.13;;;;;;;19.44;72.29;101857.69;5054238;28;20032;-73
2023/09/08 11:10:31;;;;;;;4.97;2.03;;;;;;;19.54;68.84;101878.97;5053805;28;20025;-73
2023/09/08 11:12:57;;;;;;;6.07;2.03;;;;;;;19.67;68.58;101894.50;5052843;28;20467;-76
2023/09/08 11:15:22;;;;;;;2.83;2.05;;;;;;;19.52;67.96;101891.81;5054083;28;20440;-74
2023/09/08 11:17:50;;;;;;;6.03;2.58;;;;;;;19.46;68.54;101888.03;5053064;28;20036;-76